Time;durP1;ratioP1;P1;durP2;ratioP2;P2;SDS_P1;SDS_P2;PMS_P1;PMS_P2;Temp;Humidity;BMP_temperature;BMP_pressure;BME280_temperature;BME280_humidity;BME280_pressure;Samples;Min_cycle;Max_cycle;Signal;HPM_P1;HPM_P2
2022/07/15 00:00:34;;;;;;;;;;;26.70;54.70;;;;;;2091944;28;1206;-82
2022/07/15 00:01:35;;;;;;;;;;;26.70;54.80;;;;;;2091828;28;1267;-82
2022/07/15 00:02:35;;;;;;;;;;;26.70;54.70;;;;;;2091898;28;1385;-81
2022/07/15 00:03:35;;;;;;;;;;;26.70;54.70;;;;;;2100195;28;1003;-82
2022/07/15 00:04:36;;;;;;;;;;;26.70;54.80;;;;;;2100539;28;1953;-81
2022/07/15 00:05:36;;;;;;;;;;;26.70;54.90;;;;;;2100573;28;833;-81
2022/07/15 00:06:37;;;;;;;;;;;26.70;54.80;;;;;;2100025;28;1241;-82
2022/07/15 00:07:37;;;;;;;;;;;26.70;54.90;;;;;;2100181;28;812;-81
2022/07/15 00:08:37;;;;;;;;;;;26.70;54.80;;;;;;2100809;28;929;-81
2022/07/15 00:10:56;;;;;;;;;;;26.70;55.00;;;;;;2100692;28;762;-81
2022/07/15 00:11:58;;;;;;;;;;;26.70;54.80;;;;;;2100692;28;901;-81
2022/07/15 00:12:58;;;;;;;;;;;26.70;54.80;;;;;;2100041;28;1228;-81
2022/07/15 00:13:58;;;;;;;;;;;26.70;54.90;;;;;;2091866;28;1293;-82
2022/07/15 00:14:59;;;;;;;;;;;26.70;54.80;;;;;;2099965;28;1263;-82
2022/07/15 00:15:59;;;;;;;;;;;26.70;54.90;;;;;;2100832;28;855;-81
2022/07/15 00:17:00;;;;;;;;;;;26.70;54.80;;;;;;2099988;28;1244;-81
2022/07/15 00:18:04;;;;;;;;;;;26.70;54.90;;;;;;2091630;28;1362;-81
2022/07/15 00:19:05;;;;;;;;;;;26.70;54.90;;;;;;2099972;28;1403;-81
2022/07/15 00:20:05;;;;;;;;;;;26.70;54.80;;;;;;2100046;28;842;-81
2022/07/15 00:21:05;;;;;;;;;;;26.70;54.90;;;;;;2100473;28;1052;-82
2022/07/15 00:22:06;;;;;;;;;;;26.70;54.90;;;;;;2099871;28;1263;-81
2022/07/15 00:23:06;;;;;;;;;;;26.70;54.90;;;;;;2091855;28;1267;-81
2022/07/15 00:24:06;;;;;;;;;;;26.70;54.90;;;;;;2099846;28;1902;-82
2022/07/15 00:25:07;;;;;;;;;;;26.70;54.90;;;;;;2099868;28;1184;-81
2022/07/15 00:26:07;;;;;;;;;;;26.70;54.90;;;;;;2099788;28;1208;-81
2022/07/15 00:27:08;;;;;;;;;;;26.70;54.90;;;;;;2099901;28;1040;-82
2022/07/15 00:28:08;;;;;;;;;;;26.70;54.90;;;;;;2099860;28;1222;-81
2022/07/15 00:29:09;;;;;;;;;;;26.70;54.80;;;;;;2099884;28;919;-81
2022/07/15 00:30:09;;;;;;;;;;;26.70;54.80;;;;;;2100595;28;865;-81
2022/07/15 00:31:09;;;;;;;;;;;26.70;54.90;;;;;;2100651;28;1023;-82
2022/07/15 00:32:10;;;;;;;;;;;26.70;54.90;;;;;;2100707;28;829;-82
2022/07/15 00:33:10;;;;;;;;;;;26.70;54.80;;;;;;2100421;28;899;-82
2022/07/15 00:34:11;;;;;;;;;;;26.70;54.80;;;;;;2100363;28;1047;-82
2022/07/15 00:35:11;;;;;;;;;;;26.70;54.80;;;;;;2100357;28;1225;-82
2022/07/15 00:36:12;;;;;;;;;;;26.70;54.80;;;;;;2099704;28;1275;-81
2022/07/15 00:37:12;;;;;;;;;;;26.70;54.80;;;;;;2099809;28;876;-81
2022/07/15 00:38:13;;;;;;;;;;;26.70;54.80;;;;;;2099680;28;1387;-82
2022/07/15 00:39:13;;;;;;;;;;;26.70;54.80;;;;;;2099748;28;1032;-82
2022/07/15 00:40:13;;;;;;;;;;;26.70;54.80;;;;;;2099887;28;1379;-81
2022/07/15 00:41:14;;;;;;;;;;;26.70;54.80;;;;;;2091595;28;1258;-81
2022/07/15 00:43:33;;;;;;;;;;;26.70;54.70;;;;;;2100111;28;631;-81
2022/07/15 00:44:33;;;;;;;;;;;26.70;54.70;;;;;;2099590;28;1906;-81
2022/07/15 00:45:33;;;;;;;;;;;26.70;54.80;;;;;;2099857;28;817;-81
2022/07/15 00:46:34;;;;;;;;;;;26.70;54.80;;;;;;2099764;28;1472;-81
2022/07/15 00:47:34;;;;;;;;;;;26.70;54.80;;;;;;2091577;28;1332;-82
2022/07/15 00:48:35;;;;;;;;;;;26.70;54.80;;;;;;2091458;28;1547;-82
2022/07/15 00:49:35;;;;;;;;;;;26.70;54.70;;;;;;2091413;28;1337;-81
2022/07/15 00:50:35;;;;;;;;;;;26.70;54.70;;;;;;2091385;28;1239;-81
2022/07/15 00:51:36;;;;;;;;;;;26.70;54.70;;;;;;2091352;28;1264;-81
2022/07/15 00:52:36;;;;;;;;;;;26.70;54.70;;;;;;2091289;28;1392;-82
2022/07/15 00:53:36;;;;;;;;;;;26.70;54.70;;;;;;2099591;28;909;-82
2022/07/15 00:54:37;;;;;;;;;;;26.70;54.70;;;;;;2100317;28;1267;-81
2022/07/15 00:55:38;;;;;;;;;;;26.70;54.70;;;;;;2099738;28;1347;-82
2022/07/15 00:56:39;;;;;;;;;;;26.70;54.70;;;;;;2099838;28;894;-81
2022/07/15 00:57:39;;;;;;;;;;;26.70;54.70;;;;;;2099617;28;1234;-81
2022/07/15 00:58:39;;;;;;;;;;;26.70;54.70;;;;;;2091500;28;1237;-81
2022/07/15 00:59:40;;;;;;;;;;;26.70;54.70;;;;;;2099604;28;1337;-81
2022/07/15 01:00:41;;;;;;;;;;;26.70;54.70;;;;;;2091311;28;1249;-81
2022/07/15 01:01:41;;;;;;;;;;;26.70;54.70;;;;;;2099574;28;861;-82
2022/07/15 01:02:50;;;;;;;;;;;26.70;54.70;;;;;;2100441;28;843;-82
2022/07/15 01:03:50;;;;;;;;;;;26.70;54.70;;;;;;2100096;28;1890;-81
2022/07/15 01:04:50;;;;;;;;;;;26.70;54.70;;;;;;2100082;28;1264;-81
2022/07/15 01:05:51;;;;;;;;;;;26.70;54.70;;;;;;2099541;28;1495;-81
2022/07/15 01:06:51;;;;;;;;;;;26.70;54.70;;;;;;2091418;28;1411;-81
2022/07/15 01:07:51;;;;;;;;;;;26.70;54.70;;;;;;2099463;28;1280;-81
2022/07/15 01:08:52;;;;;;;;;;;26.70;54.70;;;;;;2091418;28;1225;-82
2022/07/15 01:09:52;;;;;;;;;;;26.70;54.70;;;;;;2099718;28;898;-81
2022/07/15 01:10:53;;;;;;;;;;;26.70;54.70;;;;;;2100041;28;944;-81
2022/07/15 01:11:53;;;;;;;;;;;26.70;54.70;;;;;;2100180;28;908;-81
2022/07/15 01:12:54;;;;;;;;;;;26.70;54.70;;;;;;2100218;28;932;-82
2022/07/15 01:13:54;;;;;;;;;;;26.70;54.60;;;;;;2099661;28;1331;-81
2022/07/15 01:14:55;;;;;;;;;;;26.70;54.70;;;;;;2091067;28;1281;-82
2022/07/15 01:15:55;;;;;;;;;;;26.70;54.60;;;;;;2099515;28;1320;-82
2022/07/15 01:16:56;;;;;;;;;;;26.70;54.70;;;;;;2099641;28;984;-82
2022/07/15 01:17:56;;;;;;;;;;;26.70;54.60;;;;;;2100322;28;904;-81
2022/07/15 01:18:57;;;;;;;;;;;26.70;54.70;;;;;;2099387;28;1249;-81
2022/07/15 01:19:57;;;;;;;;;;;26.70;54.60;;;;;;2091179;28;1355;-81
2022/07/15 01:20:58;;;;;;;;;;;26.70;54.60;;;;;;2099431;28;1264;-82
2022/07/15 01:21:58;;;;;;;;;;;26.70;54.60;;;;;;2091160;28;1366;-81
2022/07/15 01:23:01;;;;;;;;;;;26.70;54.60;;;;;;2099598;28;1377;-82
2022/07/15 01:24:02;;;;;;;;;;;26.70;54.60;;;;;;2099598;28;1894;-81
2022/07/15 01:25:02;;;;;;;;;;;26.70;54.60;;;;;;2100136;28;1279;-81
2022/07/15 01:26:03;;;;;;;;;;;26.70;54.60;;;;;;2099350;28;1421;-82
2022/07/15 01:27:03;;;;;;;;;;;26.70;54.70;;;;;;2099569;28;949;-82
2022/07/15 01:28:03;;;;;;;;;;;26.70;54.60;;;;;;2100102;28;858;-82
2022/07/15 01:29:04;;;;;;;;;;;26.70;54.60;;;;;;2099436;28;1382;-81
2022/07/15 01:30:04;;;;;;;;;;;26.60;54.60;;;;;;2091231;28;1420;-81
2022/07/15 01:31:05;;;;;;;;;;;26.70;54.60;;;;;;2099444;28;1383;-81
2022/07/15 01:32:05;;;;;;;;;;;26.70;54.60;;;;;;2091363;28;1223;-82
2022/07/15 01:33:06;;;;;;;;;;;26.70;54.60;;;;;;2099364;28;1370;-81
2022/07/15 01:34:06;;;;;;;;;;;26.70;54.60;;;;;;2099451;28;950;-81
2022/07/15 01:35:07;;;;;;;;;;;26.70;54.70;;;;;;2099314;28;1374;-81
2022/07/15 01:36:08;;;;;;;;;;;26.70;54.60;;;;;;2091200;28;1361;-81
2022/07/15 01:37:08;;;;;;;;;;;26.70;54.60;;;;;;2091273;28;1389;-81
2022/07/15 01:38:08;;;;;;;;;;;26.70;54.60;;;;;;2091100;28;1201;-81
2022/07/15 01:39:09;;;;;;;;;;;26.70;54.60;;;;;;2099499;28;910;-81
2022/07/15 01:40:09;;;;;;;;;;;26.70;54.60;;;;;;2099320;28;1265;-82
2022/07/15 01:41:09;;;;;;;;;;;26.70;54.50;;;;;;2099402;28;1027;-81
2022/07/15 01:42:10;;;;;;;;;;;26.70;54.50;;;;;;2099471;28;1266;-82
2022/07/15 01:43:10;;;;;;;;;;;26.70;54.60;;;;;;2091462;28;1509;-81
2022/07/15 01:44:11;;;;;;;;;;;26.70;54.50;;;;;;2099474;28;1913;-81
2022/07/15 01:45:11;;;;;;;;;;;26.60;54.50;;;;;;2107806;28;1388;-81
2022/07/15 01:46:11;;;;;;;;;;;26.70;54.60;;;;;;2099360;28;1414;-81
2022/07/15 01:47:12;;;;;;;;;;;26.60;54.50;;;;;;2099488;28;1021;-81
2022/07/15 01:49:31;;;;;;;;;;;26.70;54.60;;;;;;2099990;28;691;-81
2022/07/15 01:50:32;;;;;;;;;;;26.70;54.50;;;;;;2099972;28;861;-81
2022/07/15 01:51:32;;;;;;;;;;;26.70;54.60;;;;;;2101350;28;1358;-81
2022/07/15 01:52:32;;;;;;;;;;;26.60;54.50;;;;;;2093815;28;1449;-81
2022/07/15 01:53:33;;;;;;;;;;;26.70;54.50;;;;;;2102306;28;944;-81
2022/07/15 01:54:33;;;;;;;;;;;26.70;54.50;;;;;;2102767;28;1173;-80
2022/07/15 01:55:34;;;;;;;;;;;26.60;54.50;;;;;;2101983;28;1359;-81
2022/07/15 01:56:36;;;;;;;;;;;26.70;54.60;;;;;;2093790;28;1226;-81
2022/07/15 01:57:36;;;;;;;;;;;26.60;54.60;;;;;;2101937;28;1253;-81
2022/07/15 01:58:36;;;;;;;;;;;26.70;54.50;;;;;;2093782;28;1420;-81
2022/07/15 01:59:37;;;;;;;;;;;26.70;54.50;;;;;;2102154;28;1031;-81
2022/07/15 02:00:37;;;;;;;;;;;26.70;54.50;;;;;;2102075;28;1260;-81
2022/07/15 02:01:37;;;;;;;;;;;26.70;54.50;;;;;;2093919;28;1295;-81
2022/07/15 02:02:38;;;;;;;;;;;26.70;54.50;;;;;;2102248;28;859;-81
2022/07/15 02:03:38;;;;;;;;;;;26.70;54.50;;;;;;2102007;28;1399;-81
2022/07/15 02:04:38;;;;;;;;;;;26.60;54.50;;;;;;2101947;28;1902;-81
2022/07/15 02:05:39;;;;;;;;;;;26.70;54.50;;;;;;2102081;28;1251;-81
2022/07/15 02:06:39;;;;;;;;;;;26.70;54.50;;;;;;2102175;28;940;-81
2022/07/15 02:07:40;;;;;;;;;;;26.70;54.50;;;;;;2102835;28;841;-81
2022/07/15 02:08:40;;;;;;;;;;;26.70;54.50;;;;;;2102617;28;932;-81
2022/07/15 02:09:40;;;;;;;;;;;26.70;54.50;;;;;;2102662;28;1024;-81
2022/07/15 02:10:41;;;;;;;;;;;26.70;54.50;;;;;;2102120;28;1360;-81
2022/07/15 02:11:41;;;;;;;;;;;26.60;54.50;;;;;;2102269;28;1007;-81
2022/07/15 02:12:41;;;;;;;;;;;26.70;54.40;;;;;;2101849;28;1164;-81
2022/07/15 02:13:42;;;;;;;;;;;26.70;54.40;;;;;;2093827;28;1372;-81
2022/07/15 02:14:42;;;;;;;;;;;26.70;54.40;;;;;;2101962;28;1198;-81
2022/07/15 02:15:43;;;;;;;;;;;26.70;54.40;;;;;;2102065;28;1257;-82
2022/07/15 02:16:44;;;;;;;;;;;26.70;54.40;;;;;;2102204;28;1233;-81
2022/07/15 02:17:44;;;;;;;;;;;26.70;54.40;;;;;;2102021;28;1399;-81
2022/07/15 02:18:45;;;;;;;;;;;26.70;54.40;;;;;;2093832;28;1262;-81
2022/07/15 02:19:45;;;;;;;;;;;26.60;54.40;;;;;;2093862;28;1411;-81
2022/07/15 02:20:46;;;;;;;;;;;26.70;54.40;;;;;;2102394;28;969;-81
2022/07/15 02:21:47;;;;;;;;;;;26.60;54.30;;;;;;2102120;28;1389;-81
2022/07/15 02:22:47;;;;;;;;;;;26.60;54.40;;;;;;2102134;28;1469;-82
2022/07/15 02:23:48;;;;;;;;;;;26.60;54.40;;;;;;2101982;28;1273;-82
2022/07/15 02:24:48;;;;;;;;;;;26.70;54.40;;;;;;2093583;28;1898;-81
2022/07/15 02:25:49;;;;;;;;;;;26.70;54.40;;;;;;2102211;28;944;-81
2022/07/15 02:26:49;;;;;;;;;;;26.70;54.40;;;;;;2102008;28;1346;-81
2022/07/15 02:27:52;;;;;;;;;;;26.70;54.40;;;;;;2102095;28;914;-81
2022/07/15 02:28:52;;;;;;;;;;;26.70;54.40;;;;;;2102055;28;1376;-81
2022/07/15 02:29:52;;;;;;;;;;;26.70;54.40;;;;;;2093940;28;1136;-81
2022/07/15 02:30:53;;;;;;;;;;;26.60;54.30;;;;;;2093592;28;1249;-81
2022/07/15 02:31:53;;;;;;;;;;;26.70;54.40;;;;;;2102091;28;1052;-81
2022/07/15 02:32:53;;;;;;;;;;;26.60;54.40;;;;;;2102084;28;1192;-82
2022/07/15 02:33:54;;;;;;;;;;;26.70;54.30;;;;;;2101833;28;1039;-81
2022/07/15 02:34:55;;;;;;;;;;;26.60;54.40;;;;;;2102370;28;1173;-82
2022/07/15 02:35:55;;;;;;;;;;;26.70;54.40;;;;;;2102591;28;825;-81
2022/07/15 02:36:56;;;;;;;;;;;26.60;54.30;;;;;;2102551;28;889;-81
2022/07/15 02:37:56;;;;;;;;;;;26.60;54.30;;;;;;2101891;28;1246;-81
2022/07/15 02:38:57;;;;;;;;;;;26.70;54.30;;;;;;2093635;28;1300;-81
2022/07/15 02:39:57;;;;;;;;;;;26.60;54.40;;;;;;2102018;28;1047;-81
2022/07/15 02:40:57;;;;;;;;;;;26.70;54.40;;;;;;2102024;28;1241;-81
2022/07/15 02:41:58;;;;;;;;;;;26.60;54.40;;;;;;2093660;28;1228;-81
2022/07/15 02:42:58;;;;;;;;;;;26.60;54.40;;;;;;2101855;28;1095;-82
2022/07/15 02:44:00;;;;;;;;;;;26.70;54.40;;;;;;2110301;28;1898;-81
2022/07/15 02:45:00;;;;;;;;;;;26.60;54.40;;;;;;2110275;28;1251;-82
2022/07/15 02:46:01;;;;;;;;;;;26.70;54.30;;;;;;2102459;28;904;-81
2022/07/15 02:47:01;;;;;;;;;;;26.70;54.40;;;;;;2101810;28;1155;-81
2022/07/15 02:48:02;;;;;;;;;;;26.60;54.30;;;;;;2102095;28;887;-81
2022/07/15 02:49:02;;;;;;;;;;;26.60;54.30;;;;;;2102522;28;857;-82
2022/07/15 02:50:05;;;;;;;;;;;26.60;54.40;;;;;;2102667;28;865;-81
2022/07/15 02:51:05;;;;;;;;;;;26.60;54.40;;;;;;2102668;28;817;-82
2022/07/15 02:52:06;;;;;;;;;;;26.70;54.40;;;;;;2102474;28;897;-81
2022/07/15 02:53:06;;;;;;;;;;;26.60;54.30;;;;;;2102521;28;1039;-81
2022/07/15 02:54:06;;;;;;;;;;;26.70;54.40;;;;;;2101883;28;1215;-80
2022/07/15 02:55:07;;;;;;;;;;;26.60;54.40;;;;;;2101966;28;1145;-82
2022/07/15 02:56:07;;;;;;;;;;;26.60;54.30;;;;;;2102690;28;924;-81
2022/07/15 02:57:08;;;;;;;;;;;26.60;54.40;;;;;;2101903;28;1139;-81
2022/07/15 02:58:08;;;;;;;;;;;26.60;54.30;;;;;;2101981;28;829;-81
2022/07/15 02:59:09;;;;;;;;;;;26.60;54.30;;;;;;2101951;28;1233;-81
2022/07/15 03:00:11;;;;;;;;;;;26.60;54.30;;;;;;2102054;28;848;-81
2022/07/15 03:01:11;;;;;;;;;;;26.60;54.30;;;;;;2101909;28;1268;-81
2022/07/15 03:02:11;;;;;;;;;;;26.60;54.30;;;;;;2093699;28;1235;-82
2022/07/15 03:03:12;;;;;;;;;;;26.70;54.30;;;;;;2099396;28;1019;-82
2022/07/15 03:04:12;;;;;;;;;;;26.60;54.30;;;;;;2100623;28;1906;-82
2022/07/15 03:05:13;;;;;;;;;;;26.60;54.30;;;;;;2092252;28;1251;-81
2022/07/15 03:06:13;;;;;;;;;;;26.60;54.20;;;;;;2092279;28;1180;-81
2022/07/15 03:07:13;;;;;;;;;;;26.60;54.30;;;;;;2092464;28;1227;-81
2022/07/15 03:08:14;;;;;;;;;;;26.60;54.30;;;;;;2092374;28;1336;-81
2022/07/15 03:09:14;;;;;;;;;;;26.60;54.30;;;;;;2100541;28;865;-81
2022/07/15 03:10:14;;;;;;;;;;;26.60;54.30;;;;;;2101255;28;913;-81
2022/07/15 03:11:15;;;;;;;;;;;26.60;54.30;;;;;;2101202;28;857;-81
2022/07/15 03:12:15;;;;;;;;;;;26.60;54.30;;;;;;2101136;28;999;-82
2022/07/15 03:13:16;;;;;;;;;;;26.60;54.20;;;;;;2100439;28;1245;-82
2022/07/15 03:14:16;;;;;;;;;;;26.60;54.20;;;;;;2100562;28;1003;-81
2022/07/15 03:15:16;;;;;;;;;;;26.70;54.20;;;;;;2100335;28;1321;-81
2022/07/15 03:16:17;;;;;;;;;;;26.70;54.20;;;;;;2092329;28;1383;-81
2022/07/15 03:17:17;;;;;;;;;;;26.70;54.20;;;;;;2100554;28;920;-81
2022/07/15 03:18:18;;;;;;;;;;;26.60;54.20;;;;;;2101046;28;919;-81
2022/07/15 03:19:20;;;;;;;;;;;26.60;54.20;;;;;;2100466;28;1245;-81
2022/07/15 03:20:21;;;;;;;;;;;26.60;54.20;;;;;;2092419;28;1424;-81
2022/07/15 03:21:21;;;;;;;;;;;26.60;54.20;;;;;;2092216;28;1247;-81
2022/07/15 03:22:22;;;;;;;;;;;26.60;54.20;;;;;;2100603;28;1055;-81
2022/07/15 03:23:22;;;;;;;;;;;26.60;54.20;;;;;;2100406;28;1238;-82
2022/07/15 03:24:22;;;;;;;;;;;26.60;54.20;;;;;;2100468;28;1969;-81
2022/07/15 03:25:23;;;;;;;;;;;26.60;54.20;;;;;;2101005;28;1197;-81
2022/07/15 03:26:24;;;;;;;;;;;26.60;54.10;;;;;;2100986;28;959;-81
2022/07/15 03:27:24;;;;;;;;;;;26.60;54.10;;;;;;2100305;28;1381;-81
2022/07/15 03:28:24;;;;;;;;;;;26.60;54.20;;;;;;2092023;28;1301;-81
2022/07/15 03:29:26;;;;;;;;;;;26.60;54.20;;;;;;2100394;28;1249;-82
2022/07/15 03:30:26;;;;;;;;;;;26.70;54.20;;;;;;2092165;28;1288;-81
2022/07/15 03:31:26;;;;;;;;;;;26.60;54.20;;;;;;2092206;28;1262;-82
2022/07/15 03:32:27;;;;;;;;;;;26.60;54.10;;;;;;2100329;28;1297;-82
2022/07/15 03:33:27;;;;;;;;;;;26.60;54.10;;;;;;2092018;28;1281;-81
2022/07/15 03:34:27;;;;;;;;;;;26.60;54.20;;;;;;2100295;28;1398;-81
2022/07/15 03:35:28;;;;;;;;;;;26.60;54.10;;;;;;2092000;28;1272;-81
2022/07/15 03:36:28;;;;;;;;;;;26.60;54.10;;;;;;2100598;28;1004;-81
2022/07/15 03:37:29;;;;;;;;;;;26.60;54.10;;;;;;2101054;28;925;-81
2022/07/15 03:38:29;;;;;;;;;;;26.60;54.20;;;;;;2100190;28;1252;-81
2022/07/15 03:39:29;;;;;;;;;;;26.70;54.10;;;;;;2100301;28;1067;-82
2022/07/15 03:40:30;;;;;;;;;;;26.60;54.10;;;;;;2101021;28;860;-82
2022/07/15 03:41:31;;;;;;;;;;;26.60;54.10;;;;;;2100958;28;896;-81
2022/07/15 03:42:31;;;;;;;;;;;26.60;54.10;;;;;;2101002;28;853;-82
2022/07/15 03:43:32;;;;;;;;;;;26.60;54.10;;;;;;2100302;28;1264;-82
2022/07/15 03:44:32;;;;;;;;;;;26.60;54.10;;;;;;2100150;28;1910;-81
2022/07/15 03:45:33;;;;;;;;;;;26.60;54.10;;;;;;2100390;28;1365;-81
2022/07/15 03:46:33;;;;;;;;;;;26.70;54.10;;;;;;2100366;28;867;-81
2022/07/15 03:47:34;;;;;;;;;;;26.60;54.10;;;;;;2101004;28;837;-81
2022/07/15 03:48:34;;;;;;;;;;;26.60;54.20;;;;;;2100371;28;1222;-81
2022/07/15 03:49:35;;;;;;;;;;;26.70;54.10;;;;;;2091863;28;1361;-81
2022/07/15 03:50:35;;;;;;;;;;;26.60;54.10;;;;;;2100371;28;1044;-82
2022/07/15 03:51:36;;;;;;;;;;;26.60;54.10;;;;;;2100726;28;818;-81
2022/07/15 03:52:36;;;;;;;;;;;26.60;54.10;;;;;;2100276;28;1213;-81
2022/07/15 03:53:36;;;;;;;;;;;26.60;54.10;;;;;;2091893;28;1223;-81
2022/07/15 03:54:37;;;;;;;;;;;26.60;54.10;;;;;;2100297;28;1201;-81
2022/07/15 03:55:37;;;;;;;;;;;26.60;54.10;;;;;;2100067;28;1387;-81
2022/07/15 03:56:38;;;;;;;;;;;26.60;54.00;;;;;;2092134;28;1281;-81
2022/07/15 03:57:38;;;;;;;;;;;26.60;54.10;;;;;;2100069;28;1244;-81
2022/07/15 03:58:39;;;;;;;;;;;26.60;54.10;;;;;;2100222;28;1370;-81
2022/07/15 03:59:39;;;;;;;;;;;26.60;54.00;;;;;;2092013;28;1335;-81
2022/07/15 04:00:39;;;;;;;;;;;26.60;54.10;;;;;;2100118;28;1331;-82
2022/07/15 04:01:40;;;;;;;;;;;26.60;54.10;;;;;;2092033;28;1276;-82
2022/07/15 04:02:40;;;;;;;;;;;26.60;54.10;;;;;;2100045;28;1042;-81
2022/07/15 04:03:40;;;;;;;;;;;26.60;54.00;;;;;;2100772;28;1083;-81
2022/07/15 04:04:41;;;;;;;;;;;26.60;54.00;;;;;;2100725;28;1906;-81
2022/07/15 04:05:41;;;;;;;;;;;26.60;54.10;;;;;;2100085;28;1247;-81
2022/07/15 04:06:42;;;;;;;;;;;26.60;54.00;;;;;;2100130;28;904;-82
2022/07/15 04:07:42;;;;;;;;;;;26.60;54.10;;;;;;2100224;28;1337;-81
2022/07/15 04:08:43;;;;;;;;;;;26.60;54.00;;;;;;2091755;28;1234;-82
2022/07/15 04:09:43;;;;;;;;;;;26.60;54.00;;;;;;2100089;28;1028;-81
2022/07/15 04:10:43;;;;;;;;;;;26.70;54.00;;;;;;2099914;28;1475;-81
2022/07/15 04:11:44;;;;;;;;;;;26.60;54.00;;;;;;2100023;28;933;-81
2022/07/15 04:12:44;;;;;;;;;;;26.60;54.10;;;;;;2099939;28;1351;-81
2022/07/15 04:13:45;;;;;;;;;;;26.60;54.10;;;;;;2100290;28;814;-82
2022/07/15 04:14:47;;;;;;;;;;;26.60;54.00;;;;;;2100249;28;1176;-82
2022/07/15 04:15:47;;;;;;;;;;;26.60;54.10;;;;;;2100539;28;828;-81
2022/07/15 04:16:47;;;;;;;;;;;26.60;54.00;;;;;;2100470;28;842;-81
2022/07/15 04:17:48;;;;;;;;;;;26.60;54.00;;;;;;2100692;28;957;-81
2022/07/15 04:18:51;;;;;;;;;;;26.60;54.00;;;;;;2100588;28;1098;-82
2022/07/15 04:19:51;;;;;;;;;;;26.60;54.00;;;;;;2100033;28;1232;-81
2022/07/15 04:20:52;;;;;;;;;;;26.60;54.00;;;;;;2091741;28;1245;-82
2022/07/15 04:21:52;;;;;;;;;;;26.60;54.00;;;;;;2099807;28;1265;-81
2022/07/15 04:22:53;;;;;;;;;;;26.60;54.00;;;;;;2091722;28;1259;-81
2022/07/15 04:23:53;;;;;;;;;;;26.70;54.00;;;;;;2099901;28;1254;-82
2022/07/15 04:24:54;;;;;;;;;;;26.60;53.90;;;;;;2099928;28;1997;-81
2022/07/15 04:25:54;;;;;;;;;;;26.60;54.00;;;;;;2100610;28;1032;-81
2022/07/15 04:26:54;;;;;;;;;;;26.60;53.90;;;;;;2100525;28;806;-81
2022/07/15 04:27:55;;;;;;;;;;;26.60;53.90;;;;;;2099891;28;1284;-81
2022/07/15 04:28:55;;;;;;;;;;;26.60;53.90;;;;;;2099963;28;865;-81
2022/07/15 04:29:56;;;;;;;;;;;26.60;53.90;;;;;;2100575;28;1012;-82
2022/07/15 04:30:56;;;;;;;;;;;26.60;53.90;;;;;;2099904;28;1249;-82
2022/07/15 04:31:56;;;;;;;;;;;26.60;53.90;;;;;;2091687;28;1361;-82
2022/07/15 04:32:57;;;;;;;;;;;26.60;53.90;;;;;;2099958;28;1391;-81
2022/07/15 04:33:57;;;;;;;;;;;26.60;54.00;;;;;;2099840;28;1082;-82
2022/07/15 04:34:58;;;;;;;;;;;26.60;53.90;;;;;;2099824;28;1404;-81
2022/07/15 04:35:58;;;;;;;;;;;26.60;53.90;;;;;;2100041;28;874;-82
2022/07/15 04:36:58;;;;;;;;;;;26.60;53.90;;;;;;2100647;28;925;-82
2022/07/15 04:37:59;;;;;;;;;;;26.60;53.90;;;;;;2099811;28;1330;-82
2022/07/15 04:38:59;;;;;;;;;;;26.60;53.90;;;;;;2091626;28;1372;-81
2022/07/15 04:39:59;;;;;;;;;;;26.60;53.90;;;;;;2099982;28;1249;-82
2022/07/15 04:41:00;;;;;;;;;;;26.60;53.90;;;;;;2091675;28;1408;-81
2022/07/15 04:42:00;;;;;;;;;;;26.60;53.90;;;;;;2099633;28;1404;-82
2022/07/15 04:43:00;;;;;;;;;;;26.60;53.90;;;;;;2091522;28;1217;-82
2022/07/15 04:44:01;;;;;;;;;;;26.60;54.00;;;;;;2099861;28;1953;-83
2022/07/15 04:45:01;;;;;;;;;;;26.70;53.90;;;;;;2100336;28;1212;-82
2022/07/15 04:46:01;;;;;;;;;;;26.60;53.90;;;;;;2099545;28;1347;-82
2022/07/15 04:47:04;;;;;;;;;;;26.60;53.90;;;;;;2099801;28;839;-82
2022/07/15 04:50:45;;;;;;;;;;;26.60;53.90;;;;;;2099872;28;1242;-81
2022/07/15 04:50:51;;;;;;;;;;;26.60;53.80;;;;;;2100341;28;1303;-82
2022/07/15 04:51:51;;;;;;;;;;;26.60;53.90;;;;;;2099772;28;1235;-81
2022/07/15 04:52:51;;;;;;;;;;;26.60;53.80;;;;;;2099840;28;1083;-82
2022/07/15 04:53:52;;;;;;;;;;;26.60;53.80;;;;;;2099720;28;1388;-82
2022/07/15 04:54:52;;;;;;;;;;;26.60;53.80;;;;;;2091701;28;1417;-82
2022/07/15 04:55:52;;;;;;;;;;;26.60;53.80;;;;;;2091411;28;1246;-81
2022/07/15 04:56:53;;;;;;;;;;;26.60;53.80;;;;;;2099906;28;873;-82
2022/07/15 04:57:54;;;;;;;;;;;26.60;53.80;;;;;;2099786;28;1515;-82
2022/07/15 04:58:54;;;;;;;;;;;26.60;53.80;;;;;;2091405;28;1380;-81
2022/07/15 04:59:54;;;;;;;;;;;26.60;53.90;;;;;;2099657;28;1335;-82
2022/07/15 05:00:55;;;;;;;;;;;26.70;53.80;;;;;;2099869;28;880;-81
2022/07/15 05:01:55;;;;;;;;;;;26.60;53.80;;;;;;2100505;28;1063;-81
2022/07/15 05:02:56;;;;;;;;;;;26.60;53.80;;;;;;2099627;28;1296;-82
2022/07/15 05:03:56;;;;;;;;;;;26.60;53.80;;;;;;2091506;28;1902;-82
2022/07/15 05:04:57;;;;;;;;;;;26.60;53.80;;;;;;2099686;28;1161;-81
2022/07/15 05:05:57;;;;;;;;;;;26.70;53.70;;;;;;2100274;28;888;-81
2022/07/15 05:06:57;;;;;;;;;;;26.60;53.70;;;;;;2100356;28;849;-81
2022/07/15 05:07:58;;;;;;;;;;;26.70;53.80;;;;;;2099693;28;1421;-82
2022/07/15 05:08:58;;;;;;;;;;;26.70;53.70;;;;;;2091397;28;1275;-82
2022/07/15 05:09:58;;;;;;;;;;;26.70;53.80;;;;;;2099789;28;1248;-82
2022/07/15 05:10:59;;;;;;;;;;;26.60;53.70;;;;;;2099899;28;920;-82
2022/07/15 05:11:59;;;;;;;;;;;26.70;53.70;;;;;;2099535;28;1205;-81
2022/07/15 05:13:00;;;;;;;;;;;26.70;53.70;;;;;;2091186;28;1254;-81
2022/07/15 05:14:01;;;;;;;;;;;26.70;53.70;;;;;;2099667;28;821;-81
2022/07/15 05:15:01;;;;;;;;;;;26.70;53.70;;;;;;2100281;28;1251;-81
2022/07/15 05:16:02;;;;;;;;;;;26.60;53.70;;;;;;2099708;28;1348;-81
2022/07/15 05:17:02;;;;;;;;;;;26.60;53.70;;;;;;2091242;28;1386;-81
2022/07/15 05:18:02;;;;;;;;;;;26.70;53.70;;;;;;2099618;28;889;-80
2022/07/15 05:19:03;;;;;;;;;;;26.70;53.80;;;;;;2100405;28;1056;-82
2022/07/15 05:20:04;;;;;;;;;;;26.70;53.80;;;;;;2099557;28;1252;-81
2022/07/15 05:21:04;;;;;;;;;;;26.70;53.80;;;;;;2099528;28;849;-81
2022/07/15 05:22:04;;;;;;;;;;;26.70;53.80;;;;;;2099525;28;1199;-81
2022/07/15 05:23:05;;;;;;;;;;;26.60;53.80;;;;;;2091340;28;1280;-81
2022/07/15 05:24:05;;;;;;;;;;;26.70;53.80;;;;;;2091020;28;1899;-81
2022/07/15 05:25:05;;;;;;;;;;;26.70;53.80;;;;;;2099454;28;1240;-81
2022/07/15 05:26:06;;;;;;;;;;;26.70;53.70;;;;;;2098919;28;1301;-81
2022/07/15 05:27:06;;;;;;;;;;;26.70;53.80;;;;;;2099403;28;1044;-83
2022/07/15 05:28:08;;;;;;;;;;;26.70;53.70;;;;;;2099514;28;1258;-81
2022/07/15 05:29:08;;;;;;;;;;;26.70;53.80;;;;;;2099654;28;838;-81
2022/07/15 05:30:09;;;;;;;;;;;26.70;53.80;;;;;;2100075;28;1024;-81
2022/07/15 05:31:09;;;;;;;;;;;26.80;53.70;;;;;;2099440;28;1226;-81
2022/07/15 05:32:09;;;;;;;;;;;26.80;53.70;;;;;;2091218;28;1328;-82
2022/07/15 05:33:10;;;;;;;;;;;26.80;53.50;;;;;;2099456;28;1155;-82
2022/07/15 05:34:10;;;;;;;;;;;26.80;53.10;;;;;;2091120;28;1339;-81
2022/07/15 05:35:10;;;;;;;;;;;26.80;52.90;;;;;;2099708;28;1272;-81
2022/07/15 05:36:11;;;;;;;;;;;26.80;52.50;;;;;;2099691;28;1276;-81
2022/07/15 05:37:12;;;;;;;;;;;26.80;52.80;;;;;;2091193;28;1375;-82
2022/07/15 05:38:12;;;;;;;;;;;26.80;52.00;;;;;;2099545;28;944;-82
2022/07/15 05:39:12;;;;;;;;;;;26.80;51.40;;;;;;2099531;28;1200;-81
2022/07/15 05:40:15;;;;;;;;;;;26.80;51.30;;;;;;2099385;28;1388;-81
2022/07/15 05:41:15;;;;;;;;;;;26.70;51.20;;;;;;2099508;28;1358;-81
2022/07/15 05:42:15;;;;;;;;;;;26.80;51.70;;;;;;2091159;28;1383;-82
2022/07/15 05:43:16;;;;;;;;;;;26.70;51.30;;;;;;2099481;28;1281;-81
2022/07/15 05:44:16;;;;;;;;;;;26.70;51.30;;;;;;2099435;28;1980;-82
2022/07/15 05:45:17;;;;;;;;;;;26.80;51.80;;;;;;2099219;28;1283;-82
2022/07/15 05:46:17;;;;;;;;;;;26.80;51.20;;;;;;2099478;28;1401;-80
2022/07/15 05:47:18;;;;;;;;;;;26.70;51.30;;;;;;2107910;28;893;-84
2022/07/15 05:48:18;;;;;;;;;;;26.70;51.70;;;;;;2099544;28;1301;-83
2022/07/15 05:49:18;;;;;;;;;;;26.70;52.10;;;;;;2091185;28;1198;-82
2022/07/15 05:50:19;;;;;;;;;;;26.80;51.70;;;;;;2099532;28;948;-83
2022/07/15 05:51:19;;;;;;;;;;;26.80;51.60;;;;;;2099663;28;1363;-83
2022/07/15 05:52:20;;;;;;;;;;;26.80;51.80;;;;;;2099911;28;858;-83
2022/07/15 05:53:20;;;;;;;;;;;26.80;51.80;;;;;;2100287;28;889;-85
2022/07/15 05:54:20;;;;;;;;;;;26.80;51.80;;;;;;2099352;28;1225;-83
2022/07/15 05:55:21;;;;;;;;;;;26.80;52.00;;;;;;2091201;28;1166;-82
2022/07/15 05:56:21;;;;;;;;;;;26.80;51.70;;;;;;2099593;28;905;-82
2022/07/15 05:57:22;;;;;;;;;;;26.80;52.00;;;;;;2099422;28;1298;-78
2022/07/15 05:58:22;;;;;;;;;;;26.80;51.70;;;;;;2099131;28;904;-76
2022/07/15 05:59:23;;;;;;;;;;;26.70;49.40;;;;;;2099011;28;1149;-77
2022/07/15 06:00:23;;;;;;;;;;;26.60;47.30;;;;;;2099047;28;1301;-78
2022/07/15 06:01:23;;;;;;;;;;;26.50;47.10;;;;;;2099190;28;1388;-79
2022/07/15 06:02:24;;;;;;;;;;;26.30;47.90;;;;;;2099542;28;889;-80
2022/07/15 06:03:24;;;;;;;;;;;26.30;48.20;;;;;;2099157;28;1229;-77
2022/07/15 06:04:27;;;;;;;;;;;26.30;48.30;;;;;;2099164;28;1894;-77